Paramount Helsinki — 2CWB3 — position and weather

sailwx.info

Track history (hours):
 
Tides and Currents Weather Stations Pressure Air Temp Water Temp Dewpoint Dewpoint Depression Visibility Wind Speed Wind Dir Waves Ship Positions

Paramount Helsinki

Last reported at 2015-Jul-12 13:32 UTC. Time now 2015-Aug-03 17:11 UTC.
Position N 36°51' W 074°06'.
Warning: this ship's position is 22 days out of date.

Length 250 m; draft 8.2 m.

Type: Ship. MMSI: 235076275.

Date/timePositionNaut miles runAvg speedWind from/ knotsBaromVisibWave heightAir tempDewpointWater temp
2015-Jul-12 13:32N 36°51' W 074°06'1212.3
2015-Jul-12 12:33N 37°03' W 074°10'1212.4
2015-Jul-12 11:33N 37°15' W 074°15'1312.9
2015-Jul-12 10:32N 37°28' W 074°19'1312.8
2015-Jul-12 09:32N 37°40' W 074°23'1512.9
2015-Jul-12 08:24N 37°54' W 074°28'1112.9
2015-Jul-12 07:33N 38°04' W 074°33'1312.8
2015-Jul-12 06:34N 38°16' W 074°38'1312.6
2015-Jul-12 05:34N 38°28' W 074°44'1313.2
2015-Jul-12 04:33N 38°39' W 074°54'1414.1
2015-Jul-12 03:33N 38°50' W 075°04'1413.8
2015-Jul-12 02:33N 39°03' W 075°10'1313.4
2015-Jul-12 01:33N 39°15' W 075°19'1212.3
2015-Jul-12 00:33N 39°24' W 075°30'9 9.3
2015-Jul-11 23:33N 39°33' W 075°32'9 9.0
2015-Jul-11 22:33N 39°42' W 075°31'8 7.8
2015-Jul-11 21:33N 39°48' W 075°25'0 0.2
2015-Jul-11 20:33N 39°48' W 075°25'0 0.0
2015-Jul-11 19:33N 39°48' W 075°25'0 0.0
2015-Jul-11 18:33N 39°48' W 075°25'0 0.0
2015-Jul-11 17:33N 39°48' W 075°25'0 0.0
2015-Jul-11 16:33N 39°48' W 075°25'0 0.0
2015-Jul-11 15:33N 39°48' W 075°25'0 0.2
2015-Jul-11 14:33N 39°48' W 075°25'0 0.1
2015-Jul-11 13:33N 39°48' W 075°25'0 0.0
2015-Jul-11 12:33N 39°48' W 075°25'2 2.0
2015-Jul-11 11:33N 39°47' W 075°27'1211.9
2015-Jul-11 10:34N 39°37' W 075°35'2 2.1
2015-Jul-11 09:34N 39°35' W 075°35'0 0.1
2015-Jul-11 08:31N 39°35' W 075°35'0 0.0
2015-Jul-11 07:31N 39°35' W 075°35'0 0.0
2015-Jul-11 06:31N 39°35' W 075°35'0 0.0
2015-Jul-11 05:31N 39°35' W 075°35'0 0.0
2015-Jul-11 04:31N 39°35' W 075°35'0 0.0
2015-Jul-11 03:31N 39°35' W 075°35'0 0.0
2015-Jul-11 02:31N 39°35' W 075°35'0 0.0
2015-Jul-11 01:31N 39°35' W 075°35'0 0.0
2015-Jul-11 00:31N 39°35' W 075°35'0 0.0
2015-Jul-10 23:31N 39°35' W 075°35'0 0.0
2015-Jul-10 22:31N 39°35' W 075°35'0 0.0
2015-Jul-10 21:31N 39°35' W 075°35'0 0.0
2015-Jul-10 20:31N 39°35' W 075°35'0 0.0
2015-Jul-10 19:31N 39°35' W 075°35'0 0.0
2015-Jul-10 18:31N 39°35' W 075°35'0 0.0
2015-Jul-10 17:31N 39°35' W 075°35'0 0.0
2015-Jul-10 16:28N 39°35' W 075°35'0 0.0
2015-Jul-10 15:31N 39°35' W 075°35'0 0.0
2015-Jul-10 14:31N 39°35' W 075°35'0 0.0
2015-Jul-10 13:28N 39°35' W 075°35'1 1.1
2015-Jul-10 12:33N 39°34' W 075°34'2 2.1
2015-Jul-10 11:33N 39°37' W 075°35'8 7.6
2015-Jul-10 10:33N 39°43' W 075°30'8 8.2
2015-Jul-10 09:33N 39°49' W 075°23'5 5.4
2015-Jul-10 08:33N 39°51' W 075°16'0 0.0
2015-Jul-10 07:33N 39°51' W 075°16'0 0.0
2015-Jul-10 06:33N 39°51' W 075°16'0 0.0
2015-Jul-10 05:33N 39°51' W 075°16'0 0.0
2015-Jul-10 04:33N 39°51' W 075°16'0 0.0
2015-Jul-10 03:33N 39°51' W 075°16'0 0.0
2015-Jul-10 02:33N 39°51' W 075°16'0 0.0
2015-Jul-10 01:33N 39°51' W 075°16'0 0.0
2015-Jul-10 00:33N 39°51' W 075°16'0 0.0
2015-Jul-09 23:33N 39°51' W 075°16'0 0.0
2015-Jul-09 22:33N 39°51' W 075°16'0 0.0
2015-Jul-09 21:33N 39°51' W 075°16'0 0.0
2015-Jul-09 20:33N 39°51' W 075°16'0 0.0
2015-Jul-09 19:33N 39°51' W 075°16'0 0.0
2015-Jul-09 18:33N 39°51' W 075°16'0 0.0
2015-Jul-09 17:33N 39°51' W 075°16'0 0.0
2015-Jul-09 16:33N 39°51' W 075°16'0 0.0
2015-Jul-09 15:33N 39°51' W 075°16'0 0.0
2015-Jul-09 14:33N 39°51' W 075°16'0 0.1
2015-Jul-09 13:33N 39°51' W 075°16'5 5.0
2015-Jul-09 12:33N 39°49' W 075°23'8 8.1
2015-Jul-09 11:33N 39°44' W 075°30'9 9.1
2015-Jul-09 10:33N 39°35' W 075°34'1111.2
2015-Jul-09 09:33N 39°24' W 075°30'1312.7
2015-Jul-09 08:33N 39°15' W 075°19'1212.0
2015-Jul-09 07:33N 39°05' W 075°11'1312.5
2015-Jul-09 06:33N 38°53' W 075°05'10 9.6
2015-Jul-09 05:33N 38°45' W 074°57'1111.0
2015-Jul-09 04:32N 38°37' W 074°48'8 7.9
2015-Jul-09 03:33N 38°30' W 074°42'  
2015-Jul-06 14:28N 26°33' W 079°25'1415.3
2015-Jul-06 13:33N 26°19' W 079°28'1515.4
2015-Jul-06 12:33N 26°04' W 079°30'1515.5
2015-Jul-06 11:33N 25°49' W 079°33'  
Track history (hours):
 
Tides and Currents Weather Stations Pressure Air Temp Water Temp Dewpoint Dewpoint Depression Visibility Wind Speed Wind Dir Waves Ship Positions

Paramount Helsinki

Last reported at 2015-Jul-12 13:32 UTC. Time now 2015-Aug-03 17:11 UTC.
Position N 36°51' W 074°06'.
Warning: this ship's position is 22 days out of date.

Length 250 m; draft 8.2 m.

Type: Ship. MMSI: 235076275.

Date/timePositionNaut miles runAvg speedWind from/ knotsBaromVisibWave heightAir tempDewpointWater temp
2015-Jul-12 13:32N 36°51' W 074°06'1212.3
2015-Jul-12 12:33N 37°03' W 074°10'1212.4
2015-Jul-12 11:33N 37°15' W 074°15'1312.9
2015-Jul-12 10:32N 37°28' W 074°19'1312.8
2015-Jul-12 09:32N 37°40' W 074°23'1512.9
2015-Jul-12 08:24N 37°54' W 074°28'1112.9
2015-Jul-12 07:33N 38°04' W 074°33'1312.8
2015-Jul-12 06:34N 38°16' W 074°38'1312.6
2015-Jul-12 05:34N 38°28' W 074°44'1313.2
2015-Jul-12 04:33N 38°39' W 074°54'1414.1
2015-Jul-12 03:33N 38°50' W 075°04'1413.8
2015-Jul-12 02:33N 39°03' W 075°10'1313.4
2015-Jul-12 01:33N 39°15' W 075°19'1212.3
2015-Jul-12 00:33N 39°24' W 075°30'9 9.3
2015-Jul-11 23:33N 39°33' W 075°32'9 9.0
2015-Jul-11 22:33N 39°42' W 075°31'8 7.8
2015-Jul-11 21:33N 39°48' W 075°25'0 0.2
2015-Jul-11 20:33N 39°48' W 075°25'0 0.0
2015-Jul-11 19:33N 39°48' W 075°25'0 0.0
2015-Jul-11 18:33N 39°48' W 075°25'0 0.0
2015-Jul-11 17:33N 39°48' W 075°25'0 0.0
2015-Jul-11 16:33N 39°48' W 075°25'0 0.0
2015-Jul-11 15:33N 39°48' W 075°25'0 0.2
2015-Jul-11 14:33N 39°48' W 075°25'0 0.1
2015-Jul-11 13:33N 39°48' W 075°25'0 0.0
2015-Jul-11 12:33N 39°48' W 075°25'2 2.0
2015-Jul-11 11:33N 39°47' W 075°27'1211.9
2015-Jul-11 10:34N 39°37' W 075°35'2 2.1
2015-Jul-11 09:34N 39°35' W 075°35'0 0.1
2015-Jul-11 08:31N 39°35' W 075°35'0 0.0
2015-Jul-11 07:31N 39°35' W 075°35'0 0.0
2015-Jul-11 06:31N 39°35' W 075°35'0 0.0
2015-Jul-11 05:31N 39°35' W 075°35'0 0.0
2015-Jul-11 04:31N 39°35' W 075°35'0 0.0
2015-Jul-11 03:31N 39°35' W 075°35'0 0.0
2015-Jul-11 02:31N 39°35' W 075°35'0 0.0
2015-Jul-11 01:31N 39°35' W 075°35'0 0.0
2015-Jul-11 00:31N 39°35' W 075°35'0 0.0
2015-Jul-10 23:31N 39°35' W 075°35'0 0.0
2015-Jul-10 22:31N 39°35' W 075°35'0 0.0
2015-Jul-10 21:31N 39°35' W 075°35'0 0.0
2015-Jul-10 20:31N 39°35' W 075°35'0 0.0
2015-Jul-10 19:31N 39°35' W 075°35'0 0.0
2015-Jul-10 18:31N 39°35' W 075°35'0 0.0
2015-Jul-10 17:31N 39°35' W 075°35'0 0.0
2015-Jul-10 16:28N 39°35' W 075°35'0 0.0
2015-Jul-10 15:31N 39°35' W 075°35'0 0.0
2015-Jul-10 14:31N 39°35' W 075°35'0 0.0
2015-Jul-10 13:28N 39°35' W 075°35'1 1.1
2015-Jul-10 12:33N 39°34' W 075°34'2 2.1
2015-Jul-10 11:33N 39°37' W 075°35'8 7.6
2015-Jul-10 10:33N 39°43' W 075°30'8 8.2
2015-Jul-10 09:33N 39°49' W 075°23'5 5.4
2015-Jul-10 08:33N 39°51' W 075°16'0 0.0
2015-Jul-10 07:33N 39°51' W 075°16'0 0.0
2015-Jul-10 06:33N 39°51' W 075°16'0 0.0
2015-Jul-10 05:33N 39°51' W 075°16'0 0.0
2015-Jul-10 04:33N 39°51' W 075°16'0 0.0
2015-Jul-10 03:33N 39°51' W 075°16'0 0.0
2015-Jul-10 02:33N 39°51' W 075°16'0 0.0
2015-Jul-10 01:33N 39°51' W 075°16'0 0.0
2015-Jul-10 00:33N 39°51' W 075°16'0 0.0
2015-Jul-09 23:33N 39°51' W 075°16'0 0.0
2015-Jul-09 22:33N 39°51' W 075°16'0 0.0
2015-Jul-09 21:33N 39°51' W 075°16'0 0.0
2015-Jul-09 20:33N 39°51' W 075°16'0 0.0
2015-Jul-09 19:33N 39°51' W 075°16'0 0.0
2015-Jul-09 18:33N 39°51' W 075°16'0 0.0
2015-Jul-09 17:33N 39°51' W 075°16'0 0.0
2015-Jul-09 16:33N 39°51' W 075°16'0 0.0
2015-Jul-09 15:33N 39°51' W 075°16'0 0.0
2015-Jul-09 14:33N 39°51' W 075°16'0 0.1
2015-Jul-09 13:33N 39°51' W 075°16'5 5.0
2015-Jul-09 12:33N 39°49' W 075°23'8 8.1
2015-Jul-09 11:33N 39°44' W 075°30'9 9.1
2015-Jul-09 10:33N 39°35' W 075°34'1111.2
2015-Jul-09 09:33N 39°24' W 075°30'1312.7
2015-Jul-09 08:33N 39°15' W 075°19'1212.0
2015-Jul-09 07:33N 39°05' W 075°11'1312.5
2015-Jul-09 06:33N 38°53' W 075°05'10 9.6
2015-Jul-09 05:33N 38°45' W 074°57'1111.0
2015-Jul-09 04:32N 38°37' W 074°48'8 7.9
2015-Jul-09 03:33N 38°30' W 074°42'  
2015-Jul-06 14:28N 26°33' W 079°25'1415.3
2015-Jul-06 13:33N 26°19' W 079°28'1515.4
2015-Jul-06 12:33N 26°04' W 079°30'1515.5
2015-Jul-06 11:33N 25°49' W 079°33'  

Dump ship's entire track history